Time;durP1;ratioP1;P1;durP2;ratioP2;P2;SDS_P1;SDS_P2;PMS_P1;PMS_P2;Temp;Humidity;BMP_temperature;BMP_pressure;BME280_temperature;BME280_humidity;BME280_pressure;Samples;Min_cycle;Max_cycle;Signal;HPM_P1;HPM_P2
2021/06/02 00:00:22;;;;;;;5.90;5.38;;;;;;;;;;5042069;28;20204;-76
2021/06/02 00:02:50;;;;;;;9.48;4.95;;;;;;;;;;5063631;28;20250;-76
2021/06/02 00:05:17;;;;;;;6.03;5.07;;;;;;;;;;5059342;28;20267;-76
2021/06/02 00:07:43;;;;;;;5.20;4.70;;;;;;;;;;5042653;28;20185;-76
2021/06/02 00:10:11;;;;;;;4.78;4.47;;;;;;;;;;5062889;28;20181;-76
2021/06/02 00:12:37;;;;;;;6.10;4.80;;;;;;;;;;5042271;28;20284;-76
2021/06/02 00:15:05;;;;;;;7.80;4.70;;;;;;;;;;5062894;28;20177;-77
2021/06/02 00:17:31;;;;;;;5.28;4.75;;;;;;;;;;5063017;28;20177;-76
2021/06/02 00:19:58;;;;;;;4.50;4.10;;;;;;;;;;5063612;28;20631;-76
2021/06/02 00:22:24;;;;;;;5.72;5.03;;;;;;;;;;5060423;28;20189;-76
2021/06/02 00:24:50;;;;;;;5.27;4.77;;;;;;;;;;5062469;28;20750;-77
2021/06/02 00:27:16;;;;;;;5.25;4.85;;;;;;;;;;5063613;28;20428;-77
2021/06/02 00:29:46;;;;;;;7.63;5.50;;;;;;;;;;5061757;28;20212;-77
2021/06/02 00:32:13;;;;;;;8.50;5.38;;;;;;;;;;5063658;28;20257;-77
2021/06/02 00:34:39;;;;;;;5.20;4.70;;;;;;;;;;5062985;28;20196;-76
2021/06/02 00:37:09;;;;;;;6.13;4.85;;;;;;;;;;5042125;28;20200;-76
2021/06/02 00:39:35;;;;;;;7.18;4.50;;;;;;;;;;5063001;28;20176;-76
2021/06/02 00:42:03;;;;;;;5.63;5.13;;;;;;;;;;5062273;28;20185;-77
2021/06/02 00:44:29;;;;;;;6.40;5.30;;;;;;;;;;5062773;28;20173;-77
2021/06/02 00:46:58;;;;;;;6.30;5.25;;;;;;;;;;5063715;28;20173;-77
2021/06/02 00:49:25;;;;;;;6.45;4.90;;;;;;;;;;5062656;28;20188;-76
2021/06/02 00:52:01;;;;;;;5.43;4.85;;;;;;;;;;5062422;28;20545;-76
2021/06/02 00:54:30;;;;;;;5.10;4.60;;;;;;;;;;5062796;28;20277;-76
2021/06/02 00:57:17;;;;;;;5.07;4.40;;;;;;;;;;5044316;28;20213;-76
2021/06/02 00:59:50;;;;;;;5.63;5.05;;;;;;;;;;5044516;28;20223;-76
2021/06/02 01:02:17;;;;;;;5.25;4.82;;;;;;;;;;5041324;28;20173;-76
2021/06/02 01:04:44;;;;;;;6.35;5.43;;;;;;;;;;5062515;28;20212;-77
2021/06/02 01:07:11;;;;;;;5.10;4.70;;;;;;;;;;5062306;28;20185;-76
2021/06/02 01:09:40;;;;;;;5.50;5.00;;;;;;;;;;5041918;28;20188;-76
2021/06/02 01:12:07;;;;;;;4.80;4.50;;;;;;;;;;5061204;28;20197;-76
2021/06/02 01:14:34;;;;;;;7.38;4.70;;;;;;;;;;5062382;28;20565;-76
2021/06/02 01:17:01;;;;;;;4.82;4.40;;;;;;;;;;5060879;28;20686;-76
2021/06/02 01:19:28;;;;;;;5.63;5.07;;;;;;;;;;5042330;28;20666;-76
2021/06/02 01:22:00;;;;;;;5.75;5.18;;;;;;;;;;5062144;28;20201;-76
2021/06/02 01:24:27;;;;;;;5.72;5.15;;;;;;;;;;5062244;28;20177;-76
2021/06/02 01:26:55;;;;;;;5.35;4.40;;;;;;;;;;5062152;28;20190;-76
2021/06/02 01:29:21;;;;;;;4.82;4.40;;;;;;;;;;5062621;28;20219;-76
2021/06/02 01:31:50;;;;;;;8.95;4.90;;;;;;;;;;5040379;28;20170;-76
2021/06/02 01:34:34;;;;;;;4.80;4.40;;;;;;;;;;5057411;28;20185;-76
2021/06/02 01:37:06;;;;;;;5.40;4.80;;;;;;;;;;5041853;28;20185;-76
2021/06/02 01:39:51;;;;;;;5.95;5.22;;;;;;;;;;5041909;28;20209;-76
2021/06/02 01:42:35;;;;;;;5.43;5.03;;;;;;;;;;5065971;28;20187;-76
2021/06/02 01:45:01;;;;;;;5.50;5.00;;;;;;;;;;5050337;28;20197;-76
2021/06/02 01:47:27;;;;;;;4.83;4.43;;;;;;;;;;5066164;28;20184;-75
2021/06/02 01:50:12;;;;;;;6.00;5.10;;;;;;;;;;5046314;28;20434;-76
2021/06/02 01:52:40;;;;;;;5.25;4.75;;;;;;;;;;5064431;28;20435;-76
2021/06/02 01:55:15;;;;;;;6.10;5.53;;;;;;;;;;5044843;28;20189;-76
2021/06/02 01:58:08;;;;;;;5.28;4.80;;;;;;;;;;5065209;28;20220;-76
2021/06/02 02:00:43;;;;;;;5.53;4.80;;;;;;;;;;5061205;28;20239;-76
2021/06/02 02:03:12;;;;;;;5.25;4.85;;;;;;;;;;5065441;28;20187;-76
2021/06/02 02:05:54;;;;;;;5.30;4.80;;;;;;;;;;5065534;28;20303;-76
2021/06/02 02:08:28;;;;;;;6.55;4.70;;;;;;;;;;5060958;28;20173;-76
2021/06/02 02:11:09;;;;;;;5.57;5.07;;;;;;;;;;5065043;28;20176;-76
2021/06/02 02:13:51;;;;;;;5.35;4.95;;;;;;;;;;5065243;28;20204;-76
2021/06/02 02:16:26;;;;;;;5.93;5.32;;;;;;;;;;5045380;28;20185;-76
2021/06/02 02:18:59;;;;;;;5.32;4.82;;;;;;;;;;5044792;28;20188;-76
2021/06/02 02:21:37;;;;;;;4.97;4.47;;;;;;;;;;5044246;28;20203;-76
2021/06/02 02:24:09;;;;;;;6.60;4.93;;;;;;;;;;5065022;28;20669;-76
2021/06/02 02:26:47;;;;;;;5.32;4.75;;;;;;;;;;5065154;28;20200;-76
2021/06/02 02:29:19;;;;;;;6.78;5.15;;;;;;;;;;5064087;28;20185;-77
2021/06/02 02:32:04;;;;;;;7.03;4.45;;;;;;;;;;5064212;28;20177;-76
2021/06/02 02:34:33;;;;;;;8.32;5.65;;;;;;;;;;5044504;28;20173;-76
2021/06/02 02:37:04;;;;;;;4.97;4.50;;;;;;;;;;5044256;28;20181;-76
2021/06/02 02:39:48;;;;;;;4.57;4.18;;;;;;;;;;5043936;28;20181;-76
2021/06/02 02:42:22;;;;;;;5.20;4.80;;;;;;;;;;5064975;28;20184;-76
2021/06/02 02:45:06;;;;;;;6.13;5.05;;;;;;;;;;5048770;28;20204;-76
2021/06/02 02:47:56;;;;;;;7.13;5.15;;;;;;;;;;5045257;28;20196;-76
2021/06/02 02:50:25;;;;;;;5.72;4.78;;;;;;;;;;5037184;28;20190;-76
2021/06/02 02:53:06;;;;;;;5.45;4.95;;;;;;;;;;5061832;28;20173;-76
2021/06/02 02:55:37;;;;;;;5.53;4.22;;;;;;;;;;5045116;28;20188;-76
2021/06/02 02:58:10;;;;;;;5.80;4.93;;;;;;;;;;5064404;28;20185;-76
2021/06/02 03:00:39;;;;;;;6.60;4.55;;;;;;;;;;5043852;28;20700;-76
2021/06/02 03:03:23;;;;;;;5.50;5.00;;;;;;;;;;5043517;28;20178;-76
2021/06/02 03:06:00;;;;;;;5.25;4.75;;;;;;;;;;5049014;28;20208;-76
2021/06/02 03:08:31;;;;;;;8.85;4.80;;;;;;;;;;5063902;28;20177;-76
2021/06/02 03:11:26;;;;;;;7.70;5.03;;;;;;;;;;5065212;28;20169;-76
2021/06/02 03:14:11;;;;;;;5.00;4.60;;;;;;;;;;5044508;28;20193;-76
2021/06/02 03:16:39;;;;;;;5.55;5.05;;;;;;;;;;5064325;28;20183;-76
2021/06/02 03:19:08;;;;;;;5.10;4.65;;;;;;;;;;5043520;28;20268;-75
2021/06/02 03:21:49;;;;;;;4.72;4.32;;;;;;;;;;5063079;28;20176;-75
2021/06/02 03:24:17;;;;;;;5.10;4.65;;;;;;;;;;5064185;28;20240;-76
2021/06/02 03:27:10;;;;;;;5.53;4.97;;;;;;;;;;5064466;28;20205;-76
2021/06/02 03:29:45;;;;;;;4.68;4.25;;;;;;;;;;5061247;28;20189;-75
2021/06/02 03:32:11;;;;;;;5.50;4.93;;;;;;;;;;5046915;28;20237;-75
2021/06/02 03:34:42;;;;;;;4.90;4.50;;;;;;;;;;5063563;28;20598;-75
2021/06/02 03:37:23;;;;;;;5.05;4.47;;;;;;;;;;5063485;28;20260;-76
2021/06/02 03:39:50;;;;;;;6.43;5.00;;;;;;;;;;5064262;28;20187;-76
2021/06/02 03:42:38;;;;;;;5.15;4.53;;;;;;;;;;5055625;28;20184;-76
2021/06/02 03:45:12;;;;;;;5.30;4.10;;;;;;;;;;5049988;28;20192;-76
2021/06/02 03:47:45;;;;;;;5.18;4.13;;;;;;;;;;5045587;28;20189;-76
2021/06/02 03:50:11;;;;;;;4.70;4.30;;;;;;;;;;5046521;28;20169;-76
2021/06/02 03:52:49;;;;;;;5.00;4.60;;;;;;;;;;5062883;28;20184;-76
2021/06/02 03:55:15;;;;;;;4.60;4.20;;;;;;;;;;5063649;28;20489;-76
2021/06/02 03:57:53;;;;;;;5.07;4.67;;;;;;;;;;5062968;28;20232;-76
2021/06/02 04:00:20;;;;;;;4.32;3.92;;;;;;;;;;5042832;28;20441;-76
2021/06/02 04:03:02;;;;;;;5.05;4.60;;;;;;;;;;5045642;28;20549;-76
2021/06/02 04:05:35;;;;;;;5.45;4.95;;;;;;;;;;5060386;28;20200;-76
2021/06/02 04:08:01;;;;;;;4.65;4.25;;;;;;;;;;5062362;28;20655;-76
2021/06/02 04:10:31;;;;;;;4.90;4.50;;;;;;;;;;5063045;28;20187;-75
2021/06/02 04:12:57;;;;;;;4.53;4.22;;;;;;;;;;5042200;28;20471;-75
2021/06/02 04:15:23;;;;;;;5.30;3.70;;;;;;;;;;5063346;28;20199;-76
2021/06/02 04:17:50;;;;;;;6.80;4.70;;;;;;;;;;5062745;28;20435;-76
2021/06/02 04:20:17;;;;;;;9.38;5.88;;;;;;;;;;5063771;28;20188;-76
2021/06/02 04:22:45;;;;;;;4.65;4.28;;;;;;;;;;5044311;28;20200;-76
2021/06/02 04:25:12;;;;;;;4.80;4.40;;;;;;;;;;5063169;28;20212;-76
2021/06/02 04:27:40;;;;;;;6.82;5.38;;;;;;;;;;5042033;28;20278;-76
2021/06/02 04:30:07;;;;;;;5.53;4.93;;;;;;;;;;5062976;28;20184;-76
2021/06/02 04:32:40;;;;;;;5.03;4.65;;;;;;;;;;5062386;28;20165;-75
2021/06/02 04:35:07;;;;;;;5.70;5.05;;;;;;;;;;5062761;28;20180;-75
2021/06/02 04:37:35;;;;;;;6.50;4.10;;;;;;;;;;5063064;28;20176;-76
2021/06/02 04:40:02;;;;;;;5.88;4.53;;;;;;;;;;5042203;28;20181;-76
2021/06/02 04:42:29;;;;;;;4.60;4.28;;;;;;;;;;5058208;28;20537;-76
2021/06/02 04:44:55;;;;;;;5.57;5.05;;;;;;;;;;5062953;28;20197;-76
2021/06/02 04:47:21;;;;;;;5.32;4.28;;;;;;;;;;5045122;28;20302;-76
2021/06/02 04:50:06;;;;;;;4.88;4.47;;;;;;;;;;5047410;28;20203;-76
2021/06/02 04:52:32;;;;;;;6.38;4.50;;;;;;;;;;5062200;28;20184;-76
2021/06/02 04:55:17;;;;;;;5.65;5.18;;;;;;;;;;5062620;28;20185;-76
2021/06/02 04:57:58;;;;;;;4.93;4.45;;;;;;;;;;5062438;28;20252;-76
2021/06/02 05:00:31;;;;;;;4.80;4.05;;;;;;;;;;5041972;28;20354;-76
2021/06/02 05:03:18;;;;;;;5.22;4.72;;;;;;;;;;5043253;28;20213;-76
2021/06/02 05:05:58;;;;;;;5.25;4.22;;;;;;;;;;5044782;28;20203;-76
2021/06/02 05:08:26;;;;;;;4.82;4.43;;;;;;;;;;5059592;28;20187;-76
2021/06/02 05:10:56;;;;;;;4.15;3.83;;;;;;;;;;5041241;28;20161;-76
2021/06/02 05:13:34;;;;;;;6.30;4.40;;;;;;;;;;5057724;28;20312;-76
2021/06/02 05:16:11;;;;;;;5.13;4.60;;;;;;;;;;5044629;28;20211;-76
2021/06/02 05:18:46;;;;;;;5.95;4.32;;;;;;;;;;5063489;28;20197;-76
2021/06/02 05:24:09;;;;;;;5.05;4.65;;;;;;;;;;5012946;28;20652;-76
2021/06/02 05:26:41;;;;;;;4.25;3.95;;;;;;;;;;5015129;28;20271;-76
2021/06/02 05:29:13;;;;;;;5.10;4.60;;;;;;;;;;5023340;28;20194;-76
2021/06/02 05:31:57;;;;;;;5.53;5.03;;;;;;;;;;5024475;28;20197;-76
2021/06/02 05:34:41;;;;;;;5.97;4.32;;;;;;;;;;5002121;28;20330;-76
2021/06/02 05:37:13;;;;;;;4.40;4.00;;;;;;;;;;5007211;28;20273;-76
2021/06/02 05:39:48;;;;;;;6.07;4.88;;;;;;;;;;5023855;28;20197;-76
2021/06/02 05:42:23;;;;;;;5.30;4.70;;;;;;;;;;5013591;28;20217;-76
2021/06/02 05:45:01;;;;;;;5.00;4.07;;;;;;;;;;4996566;28;20201;-76
2021/06/02 05:47:45;;;;;;;9.68;5.20;;;;;;;;;;5023421;28;20178;-76
2021/06/02 05:50:30;;;;;;;6.75;4.45;;;;;;;;;;5012764;28;20179;-76
2021/06/02 05:53:02;;;;;;;8.50;5.80;;;;;;;;;;5021213;28;20250;-76
2021/06/02 05:55:40;;;;;;;6.32;5.45;;;;;;;;;;5020623;28;20282;-76
2021/06/02 05:58:11;;;;;;;5.18;4.70;;;;;;;;;;5023282;28;20198;-76
2021/06/02 06:00:56;;;;;;;4.47;4.05;;;;;;;;;;5037165;28;20634;-76
2021/06/02 06:03:41;;;;;;;6.00;4.38;;;;;;;;;;5046738;28;20208;-76
2021/06/02 06:06:23;;;;;;;5.95;5.00;;;;;;;;;;5063787;28;20684;-76
2021/06/02 06:08:54;;;;;;;4.82;4.13;;;;;;;;;;5050059;28;20185;-76
2021/06/02 06:11:51;;;;;;;6.07;5.18;;;;;;;;;;5062354;28;20173;-77
2021/06/02 06:14:36;;;;;;;5.60;5.15;;;;;;;;;;4961630;28;20227;-76
2021/06/02 06:17:13;;;;;;;5.28;4.78;;;;;;;;;;4963635;28;20196;-77
2021/06/02 06:19:57;;;;;;;5.70;5.20;;;;;;;;;;4961691;28;20199;-76
2021/06/02 06:22:37;;;;;;;6.38;4.47;;;;;;;;;;4961983;28;20193;-76
2021/06/02 06:25:03;;;;;;;5.43;4.93;;;;;;;;;;4967457;28;20220;-76
2021/06/02 06:27:49;;;;;;;6.07;5.00;;;;;;;;;;4964385;28;20186;-76
2021/06/02 06:30:18;;;;;;;5.35;4.85;;;;;;;;;;4964811;28;20201;-76
2021/06/02 06:32:46;;;;;;;4.63;4.07;;;;;;;;;;4965289;28;20194;-77
2021/06/02 06:35:14;;;;;;;5.25;4.57;;;;;;;;;;4959963;28;20606;-77
2021/06/02 06:37:44;;;;;;;5.78;5.20;;;;;;;;;;4957021;28;20714;-78
2021/06/02 06:40:13;;;;;;;5.43;4.32;;;;;;;;;;4938739;29;20191;-77
2021/06/02 06:42:42;;;;;;;5.00;4.60;;;;;;;;;;4959342;28;20319;-77
2021/06/02 06:45:11;;;;;;;5.35;4.80;;;;;;;;;;4959341;28;20223;-77
2021/06/02 06:47:38;;;;;;;4.47;3.88;;;;;;;;;;4955013;28;20744;-77
2021/06/02 06:50:07;;;;;;;5.00;4.60;;;;;;;;;;4969686;28;20177;-76
2021/06/02 06:52:34;;;;;;;8.85;5.78;;;;;;;;;;5061890;28;20210;-77
2021/06/02 06:55:01;;;;;;;6.78;5.53;;;;;;;;;;5057733;28;20193;-75
2021/06/02 06:57:27;;;;;;;6.65;4.75;;;;;;;;;;5059139;28;20222;-77
2021/06/02 06:59:54;;;;;;;4.85;4.40;;;;;;;;;;5061020;28;20194;-79
2021/06/02 07:02:20;;;;;;;5.00;4.55;;;;;;;;;;5064217;28;20179;-74
2021/06/02 07:04:47;;;;;;;6.63;4.70;;;;;;;;;;5046394;28;20176;-77
2021/06/02 07:07:14;;;;;;;5.03;4.63;;;;;;;;;;5064595;28;20207;-76
2021/06/02 07:09:40;;;;;;;8.55;4.35;;;;;;;;;;5063334;28;20248;-76
2021/06/02 07:12:07;;;;;;;4.45;4.05;;;;;;;;;;5063467;28;20195;-76
2021/06/02 07:14:33;;;;;;;5.40;4.90;;;;;;;;;;5062958;28;20184;-77
2021/06/02 07:17:04;;;;;;;5.03;4.53;;;;;;;;;;5060755;28;20180;-76
2021/06/02 07:19:32;;;;;;;8.75;6.65;;;;;;;;;;5063680;28;20191;-76
2021/06/02 07:21:58;;;;;;;9.32;6.97;;;;;;;;;;5059898;28;20196;-76
2021/06/02 07:24:25;;;;;;;6.25;5.65;;;;;;;;;;5059246;28;20268;-77
2021/06/02 07:26:51;;;;;;;5.22;4.82;;;;;;;;;;5059420;28;20212;-76
2021/06/02 07:29:17;;;;;;;5.00;4.60;;;;;;;;;;5052346;28;20177;-76
2021/06/02 07:31:43;;;;;;;6.18;4.30;;;;;;;;;;5060339;28;20207;-76
2021/06/02 07:34:09;;;;;;;35.05;15.90;;;;;;;;;;5059784;28;20177;-76
2021/06/02 07:36:36;;;;;;;10.35;6.35;;;;;;;;;;5058394;28;20177;-76
2021/06/02 07:39:03;;;;;;;5.50;5.00;;;;;;;;;;5029833;28;20201;-76
2021/06/02 07:41:29;;;;;;;5.43;4.82;;;;;;;;;;5037312;28;20247;-76
2021/06/02 07:43:55;;;;;;;5.70;5.10;;;;;;;;;;5056165;28;20643;-77
2021/06/02 07:46:21;;;;;;;5.20;4.80;;;;;;;;;;5059836;28;20531;-79
2021/06/02 07:48:47;;;;;;;5.00;4.50;;;;;;;;;;5060831;28;20454;-77
2021/06/02 07:51:13;;;;;;;6.40;5.90;;;;;;;;;;5060369;28;20435;-77
2021/06/02 07:53:39;;;;;;;5.93;4.67;;;;;;;;;;5061012;28;20440;-77
2021/06/02 07:56:05;;;;;;;5.37;4.87;;;;;;;;;;5061377;28;20551;-77
2021/06/02 07:58:31;;;;;;;6.43;4.40;;;;;;;;;;5058615;28;20443;-77
2021/06/02 08:00:57;;;;;;;7.07;5.27;;;;;;;;;;5052960;28;20431;-76
2021/06/02 08:03:23;;;;;;;5.03;4.63;;;;;;;;;;5059344;28;20462;-76
2021/06/02 08:05:49;;;;;;;4.73;4.33;;;;;;;;;;5033603;28;20509;-76
2021/06/02 08:08:15;;;;;;;6.20;5.63;;;;;;;;;;5062497;28;20892;-75
2021/06/02 08:10:41;;;;;;;6.00;4.70;;;;;;;;;;5054381;28;20435;-76
2021/06/02 08:13:07;;;;;;;5.60;5.10;;;;;;;;;;5052101;28;20436;-75
2021/06/02 08:15:33;;;;;;;5.07;4.60;;;;;;;;;;5048280;28;20455;-75
2021/06/02 08:17:59;;;;;;;7.33;5.00;;;;;;;;;;5045362;28;20512;-76
2021/06/02 08:20:25;;;;;;;5.43;4.93;;;;;;;;;;5046270;28;20416;-76
2021/06/02 08:22:51;;;;;;;4.40;4.07;;;;;;;;;;5055845;28;20422;-76
2021/06/02 08:25:17;;;;;;;5.10;4.70;;;;;;;;;;5051369;28;20460;-77
2021/06/02 08:27:44;;;;;;;6.53;5.37;;;;;;;;;;5047803;28;20424;-76
2021/06/02 08:30:11;;;;;;;5.20;4.80;;;;;;;;;;5030471;28;20444;-76
2021/06/02 08:32:37;;;;;;;5.93;5.00;;;;;;;;;;5045897;28;20395;-77
2021/06/02 08:35:04;;;;;;;7.37;4.63;;;;;;;;;;5047900;28;20761;-77
2021/06/02 08:37:30;;;;;;;5.07;4.60;;;;;;;;;;5039727;28;20761;-79
2021/06/02 08:39:56;;;;;;;5.57;5.07;;;;;;;;;;5054477;28;20727;-77
2021/06/02 08:42:22;;;;;;;5.43;4.90;;;;;;;;;;5047949;28;20405;-76
2021/06/02 08:44:49;;;;;;;5.80;5.07;;;;;;;;;;5051696;28;20701;-76
2021/06/02 08:47:15;;;;;;;6.57;5.07;;;;;;;;;;5037944;28;20434;-75
2021/06/02 08:49:41;;;;;;;7.47;4.50;;;;;;;;;;5051994;28;20433;-76
2021/06/02 08:52:08;;;;;;;5.90;5.37;;;;;;;;;;5057792;28;20399;-76
2021/06/02 08:54:34;;;;;;;5.40;4.90;;;;;;;;;;5057846;28;20401;-76
2021/06/02 08:57:02;;;;;;;7.00;5.10;;;;;;;;;;5030521;28;20518;-76
2021/06/02 08:59:28;;;;;;;5.43;5.03;;;;;;;;;;5066019;28;20451;-76
2021/06/02 09:01:54;;;;;;;7.13;5.13;;;;;;;;;;5062198;28;20899;-75
2021/06/02 09:04:20;;;;;;;4.90;4.40;;;;;;;;;;5055420;28;20470;-76
2021/06/02 09:06:47;;;;;;;6.07;5.20;;;;;;;;;;5053799;28;20483;-77
2021/06/02 09:09:15;;;;;;;5.53;5.03;;;;;;;;;;5063476;28;20403;-78
2021/06/02 09:11:43;;;;;;;7.30;4.83;;;;;;;;;;5047928;28;20463;-76
2021/06/02 09:14:24;;;;;;;5.07;4.57;;;;;;;;;;5053136;28;20411;-76
2021/06/02 09:16:55;;;;;;;4.80;4.40;;;;;;;;;;5064387;28;20423;-75
2021/06/02 09:19:31;;;;;;;5.13;4.70;;;;;;;;;;5040284;28;20474;-76
2021/06/02 09:21:57;;;;;;;5.33;4.87;;;;;;;;;;5061905;28;20417;-75
2021/06/02 09:24:44;;;;;;;6.83;4.10;;;;;;;;;;5045860;28;20608;-76
2021/06/02 09:27:10;;;;;;;4.37;4.07;;;;;;;;;;5040777;28;20457;-76
2021/06/02 09:29:56;;;;;;;5.10;4.70;;;;;;;;;;5048505;28;20397;-76
2021/06/02 09:32:24;;;;;;;7.70;4.93;;;;;;;;;;5062749;28;20394;-77
2021/06/02 09:34:58;;;;;;;4.67;4.27;;;;;;;;;;5051794;28;20412;-78
2021/06/02 09:37:24;;;;;;;5.30;4.00;;;;;;;;;;5051162;28;20797;-76
2021/06/02 09:39:50;;;;;;;4.77;4.40;;;;;;;;;;5038515;28;20459;-76
2021/06/02 09:42:17;;;;;;;5.10;4.60;;;;;;;;;;5044638;28;20404;-76
2021/06/02 09:44:44;;;;;;;5.90;5.20;;;;;;;;;;5040231;28;20441;-75
2021/06/02 09:47:10;;;;;;;5.30;4.90;;;;;;;;;;5063093;28;20472;-76
2021/06/02 09:49:53;;;;;;;8.03;5.40;;;;;;;;;;5064175;28;20430;-76
2021/06/02 09:52:20;;;;;;;5.33;4.30;;;;;;;;;;5058469;28;20442;-76
2021/06/02 09:54:46;;;;;;;5.40;5.00;;;;;;;;;;5043979;28;20462;-76
2021/06/02 09:57:14;;;;;;;9.20;6.73;;;;;;;;;;5056733;28;20501;-76
2021/06/02 10:00:03;;;;;;;10.57;6.87;;;;;;;;;;5063454;28;20592;-77
2021/06/02 10:02:29;;;;;;;5.60;5.10;;;;;;;;;;5048729;28;20452;-76
2021/06/02 10:05:00;;;;;;;5.00;4.50;;;;;;;;;;5050519;28;20394;-76
2021/06/02 10:07:26;;;;;;;4.77;4.03;;;;;;;;;;5058468;28;20922;-77
2021/06/02 10:09:52;;;;;;;5.47;5.00;;;;;;;;;;5042936;28;20904;-78
2021/06/02 10:12:18;;;;;;;5.63;4.67;;;;;;;;;;5034117;28;20430;-76
2021/06/02 10:14:55;;;;;;;5.13;4.63;;;;;;;;;;5029573;28;20436;-76
2021/06/02 10:17:28;;;;;;;5.07;4.63;;;;;;;;;;5060132;28;20421;-76
2021/06/02 10:19:54;;;;;;;5.03;4.50;;;;;;;;;;5062149;28;20421;-79
2021/06/02 10:22:20;;;;;;;4.73;4.33;;;;;;;;;;5040677;28;20439;-77
2021/06/02 10:24:47;;;;;;;5.47;4.93;;;;;;;;;;5050179;28;20424;-78
2021/06/02 10:27:13;;;;;;;5.63;4.63;;;;;;;;;;5061482;28;20452;-78
2021/06/02 10:29:39;;;;;;;5.57;5.10;;;;;;;;;;5029415;28;20446;-77
2021/06/02 10:32:06;;;;;;;5.17;4.20;;;;;;;;;;5057665;28;20909;-78
2021/06/02 10:34:32;;;;;;;6.03;4.20;;;;;;;;;;5032425;28;20418;-79
2021/06/02 10:36:58;;;;;;;5.60;5.00;;;;;;;;;;5050097;28;20417;-78
2021/06/02 10:39:25;;;;;;;6.57;4.90;;;;;;;;;;5050262;28;20407;-77
2021/06/02 10:41:52;;;;;;;4.20;3.90;;;;;;;;;;5045932;28;20935;-78
2021/06/02 10:44:21;;;;;;;6.07;4.20;;;;;;;;;;5047635;28;20442;-78
2021/06/02 10:46:49;;;;;;;4.93;4.40;;;;;;;;;;5058190;28;20776;-78
2021/06/02 10:49:15;;;;;;;5.43;4.93;;;;;;;;;;5054903;28;20439;-78
2021/06/02 10:51:43;;;;;;;5.40;4.07;;;;;;;;;;5049622;28;20498;-78
2021/06/02 10:54:20;;;;;;;4.40;4.00;;;;;;;;;;5048243;28;20436;-79
2021/06/02 10:56:55;;;;;;;4.07;3.50;;;;;;;;;;5033423;28;20474;-78
2021/06/02 10:59:28;;;;;;;5.03;3.83;;;;;;;;;;5059622;28;20835;-80
2021/06/02 11:02:03;;;;;;;4.30;3.90;;;;;;;;;;5051837;28;20422;-79
2021/06/02 11:04:30;;;;;;;4.50;4.20;;;;;;;;;;5049993;28;20442;-79
2021/06/02 11:07:13;;;;;;;4.43;4.10;;;;;;;;;;5052477;28;20503;-78
2021/06/02 11:10:02;;;;;;;3.60;3.40;;;;;;;;;;5053529;28;20529;-79
2021/06/02 11:12:50;;;;;;;4.40;4.00;;;;;;;;;;5054827;28;20431;-79
2021/06/02 11:15:43;;;;;;;5.97;3.63;;;;;;;;;;5045024;28;20443;-79
2021/06/02 11:18:09;;;;;;;4.57;4.17;;;;;;;;;;5045844;28;20441;-79
2021/06/02 11:20:47;;;;;;;4.23;3.93;;;;;;;;;;5056797;28;20440;-77
2021/06/02 11:23:14;;;;;;;4.20;3.67;;;;;;;;;;5053825;28;20502;-77
2021/06/02 11:25:41;;;;;;;5.40;5.00;;;;;;;;;;5059207;28;20467;-78
2021/06/02 11:28:09;;;;;;;4.90;4.10;;;;;;;;;;5054074;28;20422;-77
2021/06/02 11:30:35;;;;;;;4.10;3.80;;;;;;;;;;5039477;28;20531;-79
2021/06/02 11:33:08;;;;;;;5.00;4.50;;;;;;;;;;5054501;28;20416;-77
2021/06/02 11:35:54;;;;;;;4.30;4.00;;;;;;;;;;5043947;28;20424;-78
2021/06/02 11:38:20;;;;;;;4.93;4.50;;;;;;;;;;5063720;28;20420;-78
2021/06/02 11:40:46;;;;;;;5.00;4.43;;;;;;;;;;5054591;28;20412;-78
2021/06/02 11:43:12;;;;;;;3.87;3.60;;;;;;;;;;5058657;28;21005;-79
2021/06/02 11:45:42;;;;;;;3.30;3.10;;;;;;;;;;5055628;28;20475;-78
2021/06/02 11:48:11;;;;;;;4.07;3.77;;;;;;;;;;5036984;28;20427;-78
2021/06/02 11:50:37;;;;;;;4.60;3.90;;;;;;;;;;5032693;28;20416;-78
2021/06/02 11:53:03;;;;;;;4.47;4.17;;;;;;;;;;5048346;28;20816;-79
2021/06/02 11:55:30;;;;;;;3.93;3.63;;;;;;;;;;5054124;28;20431;-78
2021/06/02 11:57:57;;;;;;;4.57;4.00;;;;;;;;;;5052879;28;20794;-79
2021/06/02 12:00:24;;;;;;;4.30;3.90;;;;;;;;;;5056631;28;20590;-78
2021/06/02 12:02:54;;;;;;;5.17;4.63;;;;;;;;;;5058957;28;20446;-78
2021/06/02 12:05:23;;;;;;;4.80;4.40;;;;;;;;;;5054132;28;20455;-76
2021/06/02 12:07:56;;;;;;;6.60;3.93;;;;;;;;;;5056683;28;20429;-77
2021/06/02 12:10:23;;;;;;;4.30;4.00;;;;;;;;;;5055790;28;20760;-77
2021/06/02 12:12:49;;;;;;;4.30;3.90;;;;;;;;;;5040501;28;20425;-79
2021/06/02 12:15:17;;;;;;;6.13;4.40;;;;;;;;;;5047123;28;20456;-78
2021/06/02 12:17:43;;;;;;;4.93;4.23;;;;;;;;;;5045293;28;20438;-77
2021/06/02 12:20:12;;;;;;;4.57;4.17;;;;;;;;;;5059005;28;20911;-77
2021/06/02 12:22:38;;;;;;;4.70;4.00;;;;;;;;;;5043736;28;20435;-78
2021/06/02 12:25:18;;;;;;;3.90;3.60;;;;;;;;;;5047232;28;20625;-77
2021/06/02 12:27:47;;;;;;;3.67;3.37;;;;;;;;;;5034631;28;20484;-77
2021/06/02 12:30:16;;;;;;;3.80;3.50;;;;;;;;;;5054038;28;20467;-78
2021/06/02 12:32:43;;;;;;;4.13;3.83;;;;;;;;;;5037646;28;20445;-77
2021/06/02 12:35:30;;;;;;;4.80;3.87;;;;;;;;;;5060968;28;20624;-77
2021/06/02 12:38:00;;;;;;;5.40;3.90;;;;;;;;;;4946501;28;21031;-79
2021/06/02 12:40:26;;;;;;;3.93;3.63;;;;;;;;;;4960719;28;20874;-76
2021/06/02 12:42:52;;;;;;;6.87;3.70;;;;;;;;;;4967656;28;20441;-78
2021/06/02 12:45:22;;;;;;;4.27;3.93;;;;;;;;;;4961897;28;20463;-78
2021/06/02 12:47:48;;;;;;;4.80;4.30;;;;;;;;;;4961516;28;20495;-78
2021/06/02 12:50:33;;;;;;;3.60;3.40;;;;;;;;;;4978820;28;20465;-79
2021/06/02 12:52:59;;;;;;;4.13;3.83;;;;;;;;;;4960107;28;20417;-78
2021/06/02 12:55:25;;;;;;;3.97;3.67;;;;;;;;;;4964818;28;20440;-78
2021/06/02 12:58:01;;;;;;;5.27;4.50;;;;;;;;;;4962164;28;20478;-78
2021/06/02 13:00:27;;;;;;;4.57;4.17;;;;;;;;;;4965756;28;20429;-78
2021/06/02 13:02:53;;;;;;;4.90;4.50;;;;;;;;;;4967399;28;20511;-80
2021/06/02 13:05:20;;;;;;;4.33;3.40;;;;;;;;;;4957354;28;20469;-81
2021/06/02 13:07:46;;;;;;;5.00;4.40;;;;;;;;;;4965931;28;20419;-77
2021/06/02 13:10:12;;;;;;;4.10;3.80;;;;;;;;;;4956892;28;20459;-77
2021/06/02 13:12:49;;;;;;;4.97;4.57;;;;;;;;;;4965211;28;20446;-77
2021/06/02 13:15:25;;;;;;;4.80;3.73;;;;;;;;;;5017452;28;20439;-77
2021/06/02 13:17:52;;;;;;;7.00;4.70;;;;;;;;;;5025219;28;20413;-79
2021/06/02 13:20:37;;;;;;;5.60;5.10;;;;;;;;;;5047903;28;20391;-78
2021/06/02 13:23:25;;;;;;;4.80;4.40;;;;;;;;;;5100714;27;20683;-80
2021/06/02 13:26:01;;;;;;;4.73;4.33;;;;;;;;;;5061271;28;20921;-79
2021/06/02 13:28:27;;;;;;;4.70;4.30;;;;;;;;;;5081282;28;20412;-82
2021/06/02 13:30:58;;;;;;;6.63;5.10;;;;;;;;;;5079152;28;20452;-78
2021/06/02 13:33:24;;;;;;;5.00;4.50;;;;;;;;;;5077271;28;20415;-78
2021/06/02 13:36:04;;;;;;;4.90;4.50;;;;;;;;;;5076513;28;20418;-79
2021/06/02 13:38:30;;;;;;;5.80;4.90;;;;;;;;;;5059844;28;20549;-79
2021/06/02 13:40:56;;;;;;;5.23;4.63;;;;;;;;;;5079747;28;20391;-78
2021/06/02 13:43:22;;;;;;;5.43;4.93;;;;;;;;;;5071154;28;20482;-77
2021/06/02 13:46:06;;;;;;;5.23;4.50;;;;;;;;;;5072533;28;20409;-78
2021/06/02 13:48:34;;;;;;;6.50;4.83;;;;;;;;;;5064295;28;20490;-79
2021/06/02 13:51:18;;;;;;;5.57;5.07;;;;;;;;;;5062602;28;20413;-79
2021/06/02 13:54:11;;;;;;;5.87;5.27;;;;;;;;;;5061462;28;20455;-78
2021/06/02 13:56:49;;;;;;;5.57;5.17;;;;;;;;;;5057831;28;20442;-77
2021/06/02 13:59:16;;;;;;;7.60;4.90;;;;;;;;;;5064132;28;20445;-79
2021/06/02 14:01:43;;;;;;;5.40;4.90;;;;;;;;;;5063062;28;20539;-78
2021/06/02 14:04:09;;;;;;;5.43;4.93;;;;;;;;;;5065264;28;20611;-77
2021/06/02 14:06:36;;;;;;;4.70;4.30;;;;;;;;;;5062955;28;20506;-79
2021/06/02 14:09:09;;;;;;;4.90;4.50;;;;;;;;;;5077383;28;20492;-77
2021/06/02 14:11:35;;;;;;;4.60;4.20;;;;;;;;;;5063740;28;20386;-78
2021/06/02 14:14:02;;;;;;;4.67;4.27;;;;;;;;;;5064036;28;20435;-79
2021/06/02 14:16:28;;;;;;;4.10;3.73;;;;;;;;;;5068124;28;20440;-79
2021/06/02 14:18:55;;;;;;;4.70;4.33;;;;;;;;;;5071559;28;20448;-77
2021/06/02 14:21:22;;;;;;;4.30;4.00;;;;;;;;;;5062793;28;20455;-77
2021/06/02 14:23:48;;;;;;;5.23;4.73;;;;;;;;;;5061044;28;20817;-79
2021/06/02 14:26:14;;;;;;;4.80;4.40;;;;;;;;;;5063122;28;20428;-78
2021/06/02 14:28:41;;;;;;;5.00;4.20;;;;;;;;;;5061935;28;20425;-78
2021/06/02 14:31:07;;;;;;;4.90;4.60;;;;;;;;;;5064471;28;20472;-79
2021/06/02 14:33:33;;;;;;;4.47;4.03;;;;;;;;;;5055659;28;20425;-78
2021/06/02 14:35:59;;;;;;;4.43;3.80;;;;;;;;;;5048484;28;20412;-78
2021/06/02 14:38:25;;;;;;;5.43;4.10;;;;;;;;;;5048976;28;20393;-78
2021/06/02 14:40:51;;;;;;;4.37;3.97;;;;;;;;;;5050667;28;20467;-79
2021/06/02 14:43:17;;;;;;;5.13;4.67;;;;;;;;;;5050821;28;20433;-80
2021/06/02 14:45:43;;;;;;;4.37;3.83;;;;;;;;;;5050945;28;20450;-79
2021/06/02 14:48:09;;;;;;;4.00;3.40;;;;;;;;;;5047091;28;20451;-78
2021/06/02 14:50:35;;;;;;;4.93;4.27;;;;;;;;;;5048538;28;20424;-78
2021/06/02 14:53:01;;;;;;;4.47;3.90;;;;;;;;;;5049733;28;20415;-77
2021/06/02 14:55:28;;;;;;;4.70;3.63;;;;;;;;;;5050752;28;20410;-78
2021/06/02 14:57:55;;;;;;;5.17;3.90;;;;;;;;;;5050346;28;20418;-77
2021/06/02 15:00:22;;;;;;;6.40;3.70;;;;;;;;;;5050367;28;20446;-79
2021/06/02 15:02:48;;;;;;;3.93;3.63;;;;;;;;;;5046060;28;20470;-78
2021/06/02 15:05:15;;;;;;;4.30;4.00;;;;;;;;;;5048993;28;20421;-77
2021/06/02 15:07:41;;;;;;;6.30;4.40;;;;;;;;;;5051344;28;20463;-78